Terminal Aerodrome Forecast
Issued by NWS Grand Forks, ND

Home | Current Version | Previous Version | Graphics & Text | Print | Product List | Glossary On
Versions: 1 2 3 4 5 6 7 8 9 10 11 12 13 14 15
000
FTUS43 KFGF 172000 AAA
TAFGFK
TAF AMD
KGFK 172039Z 1721/1818 29016G24KT P6SM SKC
     FM172200 33016G25KT P6SM SKC
     FM180100 01014KT P6SM SKC
     FM180400 VRB06KT P6SM SKC
     FM181400 12008KT P6SM BKN250=

USA.gov is the U.S. government's official web portal to all federal, state and local government web resources and services.